createdAt,value
2022-12-18T00:06:38.083Z,99466.91
2022-12-18T00:09:04.929Z,99465.31
2022-12-18T00:14:04.082Z,99463.22
2022-12-18T00:16:34.189Z,99464.97
2022-12-18T00:19:01.376Z,99464.28
2022-12-18T00:21:30.011Z,99463.91
2022-12-18T00:23:57.239Z,99472.81
2022-12-18T00:26:26.537Z,99483.81
2022-12-18T00:28:53.988Z,99479.66
2022-12-18T00:31:23.770Z,99466.94
2022-12-18T00:33:55.188Z,99484.38
2022-12-18T00:36:28.189Z,99475.47
2022-12-18T00:38:56.479Z,99477.19
2022-12-18T00:41:42.841Z,99475.94
2022-12-18T00:44:12.343Z,99486.66
2022-12-18T00:46:39.071Z,99473.56
2022-12-18T00:49:06.039Z,99479.03
2022-12-18T00:51:32.642Z,99477.06
2022-12-18T00:53:59.465Z,99478.31
2022-12-18T00:56:26.145Z,99470.41
2022-12-18T00:58:53.267Z,99467.44
2022-12-18T01:01:20.966Z,99465.91
2022-12-18T01:06:26.040Z,99471.88
2022-12-18T01:08:52.674Z,99467.31
2022-12-18T01:11:21.324Z,99468.28
2022-12-18T01:13:48.342Z,99466.66
2022-12-18T01:16:17.512Z,99468.72
2022-12-18T01:18:44.158Z,99476.59
2022-12-18T01:21:13.430Z,99475.75
2022-12-18T01:23:40.708Z,99476.88
2022-12-18T01:26:12.950Z,99482.25
2022-12-18T01:28:41.079Z,99483.22
2022-12-18T01:31:22.316Z,99479.25
2022-12-18T01:33:49.511Z,99487.38
2022-12-18T01:36:28.024Z,99489.53
2022-12-18T01:38:54.949Z,99493.72
2022-12-18T01:41:25.126Z,99499.38
2022-12-18T01:43:55.341Z,99499.34
2022-12-18T01:46:24.433Z,99493.50
2022-12-18T01:48:57.231Z,99486.63
2022-12-18T01:51:25.401Z,99481.19
2022-12-18T01:53:52.152Z,99482.25
2022-12-18T01:56:20.935Z,99497.88
2022-12-18T01:58:55.145Z,99484.59
2022-12-18T02:01:26.361Z,99484.19
2022-12-18T02:03:53.590Z,99471.81
2022-12-18T02:06:42.499Z,99477.28
2022-12-18T02:09:16.675Z,99485.16
2022-12-18T02:11:46.290Z,99483.19
2022-12-18T02:14:15.888Z,99480.88
2022-12-18T02:16:54.184Z,99476.34
2022-12-18T02:19:57.963Z,99479.59
2022-12-18T02:22:53.176Z,99474.97
2022-12-18T02:25:22.463Z,99480.53
2022-12-18T02:27:51.395Z,99494.59
2022-12-18T02:30:19.102Z,99504.03
2022-12-18T02:32:51.814Z,99501.63
2022-12-18T02:35:24.114Z,99494.25
2022-12-18T02:37:51.218Z,99503.63
2022-12-18T02:40:20.173Z,99496.91
2022-12-18T02:45:18.275Z,99497.28
2022-12-18T02:47:47.466Z,99493.88
2022-12-18T02:50:19.746Z,99503.78
2022-12-18T02:52:46.376Z,99518.13
2022-12-18T02:55:31.546Z,99510.94
2022-12-18T02:58:17.063Z,99519.91
2022-12-18T03:00:55.762Z,99518.19
2022-12-18T03:03:31.409Z,99519.78
2022-12-18T03:06:02.925Z,99512.09
2022-12-18T03:08:35.478Z,99511.84
2022-12-18T03:11:09.143Z,99513.44
2022-12-18T03:13:52.016Z,99513.44
2022-12-18T03:16:27.082Z,99509.63
2022-12-18T03:21:54.397Z,99511.41
2022-12-18T03:24:22.770Z,99520.38
2022-12-18T03:26:53.965Z,99522.91
2022-12-18T03:29:28.553Z,99528.34
2022-12-18T03:32:02.254Z,99537.94
2022-12-18T03:34:33.552Z,99534.06
2022-12-18T03:37:00.415Z,99526.31
2022-12-18T03:39:27.099Z,99525.97
2022-12-18T03:42:09.792Z,99532.09
2022-12-18T03:44:41.236Z,99524.50
2022-12-18T03:47:17.897Z,99537.63
2022-12-18T03:50:12.480Z,99524.63
2022-12-18T03:52:46.492Z,99527.84
2022-12-18T03:55:13.967Z,99524.06
2022-12-18T03:57:42.716Z,99529.47
2022-12-18T04:00:13.979Z,99523.34
2022-12-18T04:02:46.078Z,99523.34
2022-12-18T04:05:15.503Z,99514.59
2022-12-18T04:07:43.218Z,99524.50
2022-12-18T04:10:11.441Z,99525.09
2022-12-18T04:12:38.613Z,99522.94
2022-12-18T04:15:06.401Z,99523.16
2022-12-18T04:17:33.130Z,99516.47
2022-12-18T04:19:59.818Z,99514.13
2022-12-18T04:22:26.536Z,99518.50
2022-12-18T04:24:53.120Z,99518.41
2022-12-18T04:27:19.949Z,99516.66
2022-12-18T04:29:46.536Z,99519.31
2022-12-18T04:32:13.264Z,99526.97
2022-12-18T04:34:39.949Z,99531.97
2022-12-18T04:37:06.635Z,99537.22
2022-12-18T04:39:33.345Z,99540.66
2022-12-18T04:42:01.299Z,99536.44
2022-12-18T04:44:27.923Z,99548.22
2022-12-18T04:49:26.084Z,99534.47
2022-12-18T04:51:54.076Z,99523.47
2022-12-18T04:56:54.917Z,99519.00
2022-12-18T04:59:21.858Z,99516.91
2022-12-18T05:01:48.738Z,99525.56
2022-12-18T05:04:15.552Z,99522.25
2022-12-18T05:06:42.361Z,99524.19
2022-12-18T05:09:09.095Z,99511.81
2022-12-18T05:11:36.557Z,99516.06
2022-12-18T05:16:35.064Z,99521.50
2022-12-18T05:19:01.665Z,99528.28
2022-12-18T05:21:28.308Z,99516.91
2022-12-18T05:23:55.107Z,99524.94
2022-12-18T05:26:21.758Z,99526.34
2022-12-18T05:28:48.467Z,99525.56
2022-12-18T05:31:15.433Z,99519.78
2022-12-18T05:33:42.622Z,99521.84
2022-12-18T05:36:10.147Z,99524.19
2022-12-18T05:38:39.590Z,99527.69
2022-12-18T05:41:07.287Z,99535.13
2022-12-18T05:43:37.150Z,99538.44
2022-12-18T05:46:08.597Z,99533.75
2022-12-18T05:48:35.484Z,99531.97
2022-12-18T05:51:11.658Z,99539.28
2022-12-18T05:53:39.025Z,99532.28
2022-12-18T05:56:08.813Z,99533.88
2022-12-18T05:58:35.548Z,99550.44
2022-12-18T06:01:11.039Z,99532.75
2022-12-18T06:03:37.825Z,99535.97
2022-12-18T06:06:04.621Z,99537.25
2022-12-18T06:08:31.312Z,99538.53
2022-12-18T06:10:57.980Z,99536.22
2022-12-18T06:13:24.687Z,99533.88
2022-12-18T06:15:51.435Z,99542.38
2022-12-18T06:18:18.173Z,99543.78
2022-12-18T06:20:44.821Z,99541.56
2022-12-18T06:23:11.468Z,99553.63
2022-12-18T06:25:40.135Z,99553.94
2022-12-18T06:28:06.817Z,99551.63
2022-12-18T06:30:33.511Z,99546.75
2022-12-18T06:33:00.159Z,99547.03
2022-12-18T06:35:26.802Z,99553.94
2022-12-18T06:37:53.482Z,99536.44
2022-12-18T06:40:20.303Z,99541.88
2022-12-18T06:42:46.901Z,99544.16
2022-12-18T06:45:16.279Z,99554.75
2022-12-18T06:47:43.026Z,99549.16
2022-12-18T06:50:09.905Z,99555.13
2022-12-18T06:52:36.658Z,99557.91
2022-12-18T06:55:03.729Z,99549.19
2022-12-18T06:57:30.374Z,99562.16
2022-12-18T06:59:57.059Z,99565.09
2022-12-18T07:02:23.835Z,99568.13
2022-12-18T07:04:50.595Z,99560.34
2022-12-18T07:07:17.220Z,99567.88
2022-12-18T07:09:43.832Z,99566.78
2022-12-18T07:14:45.542Z,99580.81
2022-12-18T07:17:12.331Z,99585.19
2022-12-18T07:19:39.035Z,99583.63
2022-12-18T07:27:17.151Z,99591.91
2022-12-18T07:29:43.871Z,99589.19
2022-12-18T07:32:10.592Z,99591.78
2022-12-18T07:34:37.474Z,99595.13
2022-12-18T07:37:04.290Z,99595.00
2022-12-18T07:39:30.937Z,99601.69
2022-12-18T07:42:16.047Z,99607.75
2022-12-18T07:44:43.021Z,99604.97
2022-12-18T07:47:12.203Z,99608.63
2022-12-18T07:49:39.238Z,99602.06
2022-12-18T07:52:05.976Z,99598.81
2022-12-18T07:54:32.613Z,99608.38
2022-12-18T07:56:59.250Z,99606.16
2022-12-18T07:59:26.098Z,99608.59
2022-12-18T08:01:52.850Z,99601.75
2022-12-18T08:04:19.691Z,99613.22
2022-12-18T08:06:48.228Z,99619.00
2022-12-18T08:09:15.335Z,99608.22
2022-12-18T08:11:42.235Z,99614.63
2022-12-18T08:14:08.973Z,99607.88
2022-12-18T08:16:35.852Z,99607.81
2022-12-18T08:19:02.737Z,99598.09
2022-12-18T08:21:31.741Z,99595.53
2022-12-18T08:24:00.687Z,99607.47
2022-12-18T08:26:30.968Z,99606.34
2022-12-18T08:28:59.139Z,99607.41
2022-12-18T08:31:28.466Z,99602.53
2022-12-18T08:33:55.482Z,99611.09
2022-12-18T08:36:22.963Z,99613.41
2022-12-18T08:38:50.030Z,99607.44
2022-12-18T08:41:18.592Z,99608.84
2022-12-18T08:46:44.861Z,99606.53
2022-12-18T08:49:12.987Z,99612.22
2022-12-18T08:51:40.594Z,99609.91
2022-12-18T08:54:07.865Z,99609.81
2022-12-18T08:56:35.356Z,99596.00
2022-12-18T08:59:02.824Z,99608.50
2022-12-18T09:01:29.767Z,99603.88
2022-12-18T09:03:56.579Z,99602.13
2022-12-18T09:06:24.650Z,99600.94
2022-12-18T09:08:51.473Z,99592.59
2022-12-18T09:11:28.574Z,99590.03
2022-12-18T09:13:56.517Z,99586.06
2022-12-18T09:16:31.517Z,99590.56
2022-12-18T09:19:02.870Z,99588.78
2022-12-18T09:21:33.940Z,99581.28
2022-12-18T09:24:03.782Z,99585.28
2022-12-18T09:26:31.660Z,99589.41
2022-12-18T09:31:35.695Z,99587.78
2022-12-18T09:34:02.401Z,99573.19
2022-12-18T09:36:29.066Z,99577.63
2022-12-18T09:38:55.859Z,99579.09
2022-12-18T09:41:43.652Z,99571.25
2022-12-18T09:47:25.209Z,99567.09
2022-12-18T09:52:46.548Z,99564.97
2022-12-18T09:55:37.530Z,99564.47
2022-12-18T09:58:16.659Z,99552.44
2022-12-18T10:00:43.530Z,99551.22
2022-12-18T10:03:13.546Z,99547.56
2022-12-18T10:05:49.274Z,99548.28
2022-12-18T10:08:40.095Z,99552.47
2022-12-18T10:11:20.928Z,99553.97
2022-12-18T10:13:58.281Z,99554.53
2022-12-18T10:17:06.798Z,99551.06
2022-12-18T10:19:39.010Z,99557.28
2022-12-18T10:22:23.490Z,99554.19
2022-12-18T10:25:02.312Z,99555.69
2022-12-18T10:30:05.696Z,99568.53
2022-12-18T10:32:34.077Z,99560.66
2022-12-18T10:35:01.312Z,99565.94
2022-12-18T10:37:30.277Z,99558.94
2022-12-18T10:40:21.841Z,99557.63
2022-12-18T10:43:05.097Z,99562.41
2022-12-18T10:45:31.721Z,99565.94
2022-12-18T10:51:09.581Z,99565.34
2022-12-18T10:53:31.822Z,99567.56
2022-12-18T10:56:01.166Z,99568.03
2022-12-18T10:58:30.827Z,99568.22
2022-12-18T11:01:05.595Z,99562.94
2022-12-18T11:07:04.406Z,99573.28
2022-12-18T11:09:33.003Z,99569.34
2022-12-18T11:12:02.340Z,99561.31
2022-12-18T11:14:47.166Z,99553.06
2022-12-18T11:17:31.000Z,99549.94
2022-12-18T11:20:16.066Z,99549.44
2022-12-18T11:22:42.812Z,99543.66
2022-12-18T11:28:03.489Z,99519.78
2022-12-18T11:30:38.074Z,99519.81
2022-12-18T11:33:14.264Z,99510.06
2022-12-18T11:35:43.680Z,99519.63
2022-12-18T11:38:25.177Z,99520.22
2022-12-18T11:41:01.475Z,99522.66
2022-12-18T11:43:39.871Z,99520.84
2022-12-18T11:46:19.820Z,99513.88
2022-12-18T11:48:57.954Z,99514.16
2022-12-18T11:51:34.048Z,99513.66
2022-12-18T11:54:03.102Z,99504.31
2022-12-18T11:56:37.352Z,99492.84
2022-12-18T11:59:43.574Z,99499.59
2022-12-18T12:02:26.550Z,99489.44
2022-12-18T12:05:17.737Z,99493.75
2022-12-18T12:07:48.949Z,99494.28
2022-12-18T12:10:27.515Z,99493.19
2022-12-18T12:13:06.116Z,99489.69
2022-12-18T12:15:50.538Z,99483.03
2022-12-18T12:18:47.244Z,99478.19
2022-12-18T12:21:34.476Z,99479.03
2022-12-18T12:24:39.674Z,99476.59
2022-12-18T12:27:33.865Z,99481.44
2022-12-18T12:30:10.536Z,99475.56
2022-12-18T12:32:49.297Z,99476.63
2022-12-18T12:35:37.054Z,99470.72
2022-12-18T12:38:32.162Z,99473.47
2022-12-18T12:41:28.261Z,99476.91
2022-12-18T12:43:59.573Z,99464.63
2022-12-18T12:46:27.549Z,99485.28
2022-12-18T12:51:41.761Z,99483.09
2022-12-18T12:54:24.426Z,99477.75
2022-12-18T12:56:55.320Z,99486.03
2022-12-18T12:59:59.220Z,99484.94
2022-12-18T13:02:52.199Z,99487.97
2022-12-18T13:05:45.745Z,99488.19
2022-12-18T13:08:28.651Z,99497.59
2022-12-18T13:11:20.365Z,99498.09
2022-12-18T13:13:56.231Z,99486.84
2022-12-18T13:16:28.402Z,99480.16
2022-12-18T13:18:59.929Z,99485.25
2022-12-18T13:21:34.997Z,99494.88
2022-12-18T13:24:23.851Z,99503.50
2022-12-18T13:26:51.015Z,99496.53
2022-12-18T13:29:44.059Z,99496.56
2022-12-18T13:35:39.651Z,99480.19
2022-12-18T13:41:20.222Z,99481.84
2022-12-18T13:43:49.500Z,99477.00
2022-12-18T13:46:44.303Z,99474.28
2022-12-18T13:49:14.384Z,99473.50
2022-12-18T13:51:54.631Z,99463.31
2022-12-18T13:54:30.432Z,99465.16
2022-12-18T13:56:57.135Z,99467.06
2022-12-18T13:59:26.135Z,99471.78
2022-12-18T14:01:58.761Z,99472.34
2022-12-18T14:04:29.145Z,99473.44
2022-12-18T14:07:04.723Z,99471.56
2022-12-18T14:09:37.138Z,99472.91
2022-12-18T14:12:25.497Z,99469.72
2022-12-18T14:14:55.294Z,99479.91
2022-12-18T14:17:24.085Z,99480.47
2022-12-18T14:19:52.328Z,99480.44
2022-12-18T14:22:20.697Z,99484.72
2022-12-18T14:24:48.130Z,99486.59
2022-12-18T14:27:26.531Z,99492.22
2022-12-18T14:29:53.150Z,99483.09
2022-12-18T14:32:21.570Z,99483.34
2022-12-18T14:34:50.849Z,99488.94
2022-12-18T14:37:22.310Z,99494.25
2022-12-18T14:42:38.194Z,99498.34
2022-12-18T14:45:42.138Z,99485.41
2022-12-18T14:48:23.421Z,99475.50
2022-12-18T14:50:57.915Z,99479.16
2022-12-18T14:53:33.368Z,99491.91
2022-12-18T14:56:00.046Z,99484.72
2022-12-18T14:58:27.198Z,99482.84
2022-12-18T15:00:55.751Z,99481.75
2022-12-18T15:03:23.051Z,99480.69
2022-12-18T15:05:50.075Z,99487.13
2022-12-18T15:08:35.236Z,99483.28
2022-12-18T15:11:02.713Z,99490.22
2022-12-18T15:13:30.014Z,99485.94
2022-12-18T15:16:04.003Z,99489.44
2022-12-18T15:18:42.669Z,99482.19
2022-12-18T15:21:11.555Z,99471.63
2022-12-18T15:23:48.902Z,99482.56
2022-12-18T15:26:19.202Z,99476.94
2022-12-18T15:28:49.059Z,99477.38
2022-12-18T15:31:17.748Z,99470.91
2022-12-18T15:33:54.181Z,99478.91
2022-12-18T15:36:26.295Z,99467.09
2022-12-18T15:38:55.185Z,99461.66
2022-12-18T15:41:25.055Z,99465.91
2022-12-18T15:43:53.536Z,99465.59
2022-12-18T15:46:22.723Z,99466.63
2022-12-18T15:49:01.184Z,99472.78
2022-12-18T15:51:30.259Z,99479.22
2022-12-18T15:53:59.672Z,99473.31
2022-12-18T15:56:46.531Z,99466.63
2022-12-18T15:59:18.974Z,99478.97
2022-12-18T16:01:48.292Z,99480.88
2022-12-18T16:04:17.312Z,99481.38
2022-12-18T16:07:13.383Z,99498.56
2022-12-18T16:09:31.078Z,99484.41
2022-12-18T16:11:57.953Z,99491.41
2022-12-18T16:14:30.203Z,99478.78
2022-12-18T16:17:03.256Z,99487.81
2022-12-18T16:19:30.810Z,99484.03
2022-12-18T16:21:59.422Z,99475.75
2022-12-18T16:24:31.322Z,99480.00
2022-12-18T16:27:00.397Z,99482.78
2022-12-18T16:29:28.907Z,99466.94
2022-12-18T16:31:56.969Z,99473.59
2022-12-18T16:34:28.670Z,99465.16
2022-12-18T16:37:05.182Z,99466.63
2022-12-18T16:39:34.315Z,99474.81
2022-12-18T16:42:21.939Z,99474.69
2022-12-18T16:44:49.908Z,99471.91
2022-12-18T16:47:17.790Z,99464.81
2022-12-18T16:49:51.811Z,99459.44
2022-12-18T16:52:18.995Z,99466.06
2022-12-18T16:57:18.655Z,99471.91
2022-12-18T16:59:45.894Z,99470.16
2022-12-18T17:02:17.327Z,99481.03
2022-12-18T17:04:46.674Z,99469.91
2022-12-18T17:07:14.304Z,99471.19
2022-12-18T17:09:40.992Z,99468.75
2022-12-18T17:14:39.505Z,99463.91
2022-12-18T17:17:23.125Z,99452.13
2022-12-18T17:19:52.017Z,99444.66
2022-12-18T17:22:18.752Z,99449.97
2022-12-18T17:24:46.843Z,99445.47
2022-12-18T17:27:13.474Z,99444.91
2022-12-18T17:29:45.369Z,99439.50
2022-12-18T17:32:13.811Z,99436.78
2022-12-18T17:34:40.935Z,99439.00
2022-12-18T17:37:08.008Z,99442.19
2022-12-18T17:39:34.812Z,99443.16
2022-12-18T17:42:01.515Z,99441.53
2022-12-18T17:44:28.328Z,99439.84
2022-12-18T17:46:55.312Z,99441.50
2022-12-18T17:49:22.324Z,99447.09
2022-12-18T17:54:27.460Z,99452.16
2022-12-18T17:56:54.087Z,99446.84
2022-12-18T17:59:20.820Z,99447.81
2022-12-18T18:01:47.599Z,99439.22
2022-12-18T18:04:14.635Z,99446.72
2022-12-18T18:06:41.534Z,99451.59
2022-12-18T18:09:16.345Z,99450.53
2022-12-18T18:12:03.723Z,99440.63
2022-12-18T18:14:31.030Z,99440.34
2022-12-18T18:17:03.804Z,99425.09
2022-12-18T18:19:31.263Z,99443.16
2022-12-18T18:21:57.891Z,99443.31
2022-12-18T18:24:25.882Z,99436.50
2022-12-18T18:26:52.639Z,99432.00
2022-12-18T18:29:24.090Z,99428.44
2022-12-18T18:31:53.352Z,99423.59
2022-12-18T18:34:29.259Z,99436.19
2022-12-18T18:36:55.946Z,99439.63
2022-12-18T18:39:22.750Z,99441.16
2022-12-18T18:41:49.425Z,99421.16
2022-12-18T18:44:17.790Z,99413.19
2022-12-18T18:46:44.778Z,99406.75
2022-12-18T18:49:11.966Z,99408.06
2022-12-18T18:51:38.551Z,99411.06
2022-12-18T18:54:05.372Z,99412.41
2022-12-18T18:59:19.542Z,99405.72
2022-12-18T19:01:52.991Z,99412.94
2022-12-18T19:04:19.786Z,99410.41
2022-12-18T19:06:47.893Z,99416.69
2022-12-18T19:09:15.568Z,99419.63
2022-12-18T19:12:01.069Z,99411.06
2022-12-18T19:17:06.718Z,99400.19
2022-12-18T19:19:33.346Z,99399.66
2022-12-18T19:22:00.186Z,99416.88
2022-12-18T19:24:27.076Z,99419.75
2022-12-18T19:29:27.620Z,99406.72
2022-12-18T19:31:54.533Z,99404.59
2022-12-18T19:34:21.237Z,99411.81
2022-12-18T19:36:47.880Z,99405.44
2022-12-18T19:39:17.110Z,99391.50
2022-12-18T19:41:44.704Z,99392.88
2022-12-18T19:44:13.843Z,99389.88
2022-12-18T19:46:42.439Z,99391.19
2022-12-18T19:49:10.618Z,99384.78
2022-12-18T19:51:38.209Z,99382.03
2022-12-18T19:54:05.229Z,99392.69
2022-12-18T19:56:34.265Z,99379.00
2022-12-18T19:59:02.133Z,99362.31
2022-12-18T20:01:29.793Z,99363.34
2022-12-18T20:03:58.267Z,99371.13
2022-12-18T20:06:26.300Z,99352.41
2022-12-18T20:08:59.436Z,99363.34
2022-12-18T20:11:27.656Z,99364.38
2022-12-18T20:13:54.307Z,99364.16
2022-12-18T20:16:21.120Z,99358.72
2022-12-18T20:18:49.381Z,99351.56
2022-12-18T20:21:16.261Z,99356.31
2022-12-18T20:23:43.614Z,99349.94
2022-12-18T20:26:10.816Z,99341.16
2022-12-18T20:28:37.872Z,99339.84
2022-12-18T20:31:13.395Z,99332.84
2022-12-18T20:33:41.637Z,99334.69
2022-12-18T20:36:13.359Z,99317.28
2022-12-18T20:38:41.029Z,99304.78
2022-12-18T20:41:16.630Z,99307.75
2022-12-18T20:43:43.742Z,99301.06
2022-12-18T20:46:13.673Z,99310.50
2022-12-18T20:48:40.971Z,99304.06
2022-12-18T20:51:11.760Z,99312.34
2022-12-18T20:56:21.504Z,99314.25
2022-12-18T20:58:50.375Z,99324.19
2022-12-18T21:01:21.154Z,99325.00
2022-12-18T21:03:51.305Z,99327.16
2022-12-18T21:06:20.580Z,99326.88
2022-12-18T21:08:47.906Z,99323.88
2022-12-18T21:11:39.055Z,99329.81
2022-12-18T21:14:15.993Z,99319.66
2022-12-18T21:16:44.047Z,99289.41
2022-12-18T21:19:18.826Z,99288.81
2022-12-18T21:24:17.802Z,99331.34
2022-12-18T21:26:46.430Z,99327.13
2022-12-18T21:29:16.386Z,99335.19
2022-12-18T21:31:44.514Z,99331.19
2022-12-18T21:34:44.707Z,99317.00
2022-12-18T21:37:14.561Z,99325.28
2022-12-18T21:39:41.154Z,99319.22
2022-12-18T21:44:57.716Z,99330.44
2022-12-18T21:47:24.340Z,99336.13
2022-12-18T21:49:53.134Z,99334.50
2022-12-18T21:52:31.757Z,99331.56
2022-12-18T21:55:06.283Z,99336.97
2022-12-18T21:57:35.954Z,99331.16
2022-12-18T22:02:34.709Z,99315.31
2022-12-18T22:07:39.020Z,99303.81
2022-12-18T22:10:06.043Z,99299.50
2022-12-18T22:12:35.786Z,99304.91
2022-12-18T22:15:11.257Z,99312.69
2022-12-18T22:17:39.404Z,99313.50
2022-12-18T22:20:06.574Z,99299.00
2022-12-18T22:22:33.199Z,99301.97
2022-12-18T22:24:59.826Z,99299.59
2022-12-18T22:27:26.396Z,99310.03
2022-12-18T22:30:05.109Z,99297.44
2022-12-18T22:32:36.071Z,99309.72
2022-12-18T22:35:10.440Z,99304.94
2022-12-18T22:37:40.955Z,99308.69
2022-12-18T22:40:08.623Z,99309.22
2022-12-18T22:42:35.524Z,99310.00
2022-12-18T22:45:02.312Z,99289.66
2022-12-18T22:47:30.483Z,99289.13
2022-12-18T22:49:58.085Z,99281.88
2022-12-18T22:52:25.291Z,99295.56
2022-12-18T22:54:53.526Z,99283.81
2022-12-18T22:57:24.571Z,99296.69
2022-12-18T22:59:51.672Z,99301.22
2022-12-18T23:02:19.296Z,99312.47
2022-12-18T23:04:46.233Z,99307.06
2022-12-18T23:07:13.095Z,99306.28
2022-12-18T23:09:40.066Z,99303.38
2022-12-18T23:12:07.395Z,99311.41
2022-12-18T23:14:34.417Z,99313.84
2022-12-18T23:19:32.424Z,99316.00
2022-12-18T23:21:59.256Z,99310.34
2022-12-18T23:24:26.296Z,99312.25
2022-12-18T23:26:52.962Z,99316.75
2022-12-18T23:29:19.626Z,99302.59
2022-12-18T23:31:46.837Z,99296.44
2022-12-18T23:34:14.986Z,99296.94
2022-12-18T23:36:46.327Z,99304.44
2022-12-18T23:41:47.928Z,99304.97
2022-12-18T23:44:14.610Z,99300.69
2022-12-18T23:46:41.317Z,99298.00
2022-12-18T23:49:08.030Z,99299.91
2022-12-18T23:51:34.672Z,99297.19
2022-12-18T23:54:02.851Z,99291.84
2022-12-18T23:56:30.195Z,99288.91
2022-12-18T23:58:57.197Z,99300.97
